Time;durP1;ratioP1;P1;durP2;ratioP2;P2;SDS_P1;SDS_P2;PMS_P1;PMS_P2;Temp;Humidity;BMP_temperature;BMP_pressure;BME280_temperature;BME280_humidity;BME280_pressure;Samples;Min_cycle;Max_cycle;Signal;HPM_P1;HPM_P2
2022/01/03 00:00:45;;;;;;;4.03;1.20;;;;;;;11.78;70.77;98746.16;5018202;28;103740;-66
2022/01/03 00:03:17;;;;;;;2.67;1.20;;;;;;;11.85;70.45;98750.00;5019597;27;103315;-66
2022/01/03 00:05:46;;;;;;;2.83;1.20;;;;;;;11.92;69.98;98756.53;5018986;28;103314;-67
2022/01/03 00:08:14;;;;;;;4.20;1.47;;;;;;;11.96;69.54;98742.06;5009055;28;102701;-66
2022/01/03 00:10:42;;;;;;;5.50;1.60;;;;;;;11.99;69.12;98739.19;5013058;28;102725;-66
2022/01/03 00:13:11;;;;;;;4.50;1.30;;;;;;;12.13;68.66;98730.19;5021854;27;103969;-66
2022/01/03 00:15:39;;;;;;;4.60;1.30;;;;;;;12.07;68.81;98728.03;5018248;28;103348;-66
2022/01/03 00:18:07;;;;;;;6.80;1.60;;;;;;;12.11;68.64;98722.38;5016417;27;102596;-67
2022/01/03 00:20:38;;;;;;;5.07;1.50;;;;;;;12.04;68.91;98718.50;5018743;28;102705;-66
2022/01/03 00:23:08;;;;;;;3.83;1.20;;;;;;;12.06;68.68;98716.59;5032799;27;104230;-66
2022/01/03 00:25:39;;;;;;;4.27;1.30;;;;;;;12.12;68.41;98718.75;5017687;28;102959;-66
2022/01/03 00:28:14;;;;;;;4.27;1.53;;;;;;;12.15;68.18;98715.84;5018591;28;102561;-66
2022/01/03 00:30:44;;;;;;;4.83;1.23;;;;;;;12.08;68.69;98714.66;5019412;27;102673;-66
2022/01/03 00:33:15;;;;;;;4.87;1.60;;;;;;;12.11;68.20;98717.06;5009150;28;104059;-66
2022/01/03 00:35:45;;;;;;;3.20;1.30;;;;;;;12.13;67.81;98715.13;5018246;27;103239;-66
2022/01/03 00:38:14;;;;;;;2.43;1.10;;;;;;;12.12;67.95;98716.13;5003239;28;102754;-66
2022/01/03 00:40:43;;;;;;;2.67;1.30;;;;;;;12.05;68.14;98706.94;5015782;27;102668;-66
2022/01/03 00:43:11;;;;;;;5.57;1.50;;;;;;;12.15;67.28;98721.16;5011901;28;103581;-67
2022/01/03 00:45:39;;;;;;;2.17;1.07;;;;;;;12.22;67.19;98721.53;5003526;28;103222;-66
2022/01/03 00:48:08;;;;;;;3.07;1.43;;;;;;;12.21;66.78;98719.81;5011823;28;102653;-66
2022/01/03 00:50:37;;;;;;;3.80;1.50;;;;;;;12.20;66.86;98736.69;5004989;28;102975;-66
2022/01/03 00:53:09;;;;;;;4.57;1.50;;;;;;;12.23;66.21;98733.81;5008407;28;103711;-66
2022/01/03 00:55:40;;;;;;;2.73;1.20;;;;;;;12.21;66.33;98744.50;5000757;28;104315;-67
2022/01/03 00:58:10;;;;;;;2.63;1.27;;;;;;;12.24;65.99;98750.56;5003990;28;102632;-66
2022/01/03 01:00:41;;;;;;;3.70;1.30;;;;;;;12.13;66.22;98738.97;5005965;28;102759;-66
2022/01/03 01:03:15;;;;;;;4.47;1.30;;;;;;;12.16;65.49;98746.69;5005526;28;103993;-67
2022/01/03 01:05:46;;;;;;;2.90;1.13;;;;;;;12.21;65.74;98735.72;5006725;28;104127;-66
2022/01/03 01:08:19;;;;;;;4.33;1.70;;;;;;;12.17;65.30;98734.28;5003136;27;102772;-66
2022/01/03 01:10:50;;;;;;;5.03;1.57;;;;;;;12.13;65.14;98738.97;5013195;28;103837;-67
2022/01/03 01:13:21;;;;;;;3.30;1.30;;;;;;;12.05;65.99;98759.91;5014684;28;105505;-67
2022/01/03 01:15:51;;;;;;;2.63;1.23;;;;;;;12.03;65.75;98758.34;4997376;27;103170;-66
2022/01/03 01:18:20;;;;;;;3.87;1.50;;;;;;;12.00;66.15;98759.44;5001151;28;102658;-66
2022/01/03 01:20:53;;;;;;;3.07;1.10;;;;;;;12.02;66.32;98754.84;5015131;27;103730;-66
2022/01/03 01:23:25;;;;;;;1.87;1.30;;;;;;;11.97;66.53;98753.53;5011475;28;104392;-66
2022/01/03 01:28:39;;;;;;;4.93;1.37;;;;;;;11.98;66.25;98756.06;5006432;28;102785;-66
2022/01/03 01:31:12;;;;;;;3.23;1.00;;;;;;;11.98;66.72;98771.94;5007692;28;104035;-66
2022/01/03 01:33:42;;;;;;;3.43;1.30;;;;;;;11.94;66.55;98767.84;5005209;28;103286;-66
2022/01/03 01:36:15;;;;;;;3.03;1.20;;;;;;;11.89;67.36;98777.94;5002235;28;103135;-66
2022/01/03 01:38:50;;;;;;;4.13;1.50;;;;;;;11.90;67.43;98771.66;5015981;27;102597;-66
2022/01/03 01:41:21;;;;;;;2.13;1.20;;;;;;;11.93;66.73;98773.25;4999542;28;102729;-66
2022/01/03 01:43:58;;;;;;;3.07;1.10;;;;;;;11.99;66.94;98772.78;5001477;28;104072;-66
2022/01/03 01:46:28;;;;;;;3.53;1.23;;;;;;;11.95;67.19;98777.47;5009000;28;105557;-66
2022/01/03 01:49:07;;;;;;;5.17;1.27;;;;;;;11.99;66.84;98770.97;5007835;28;102672;-66
2022/01/03 01:51:38;;;;;;;2.83;1.67;;;;;;;12.01;66.82;98770.88;5014247;28;104208;-66
2022/01/03 01:54:15;;;;;;;2.40;1.17;;;;;;;12.04;67.28;98754.75;5017379;28;103133;-66
2022/01/03 01:56:54;;;;;;;5.43;1.60;;;;;;;11.93;67.26;98742.31;5005714;28;103741;-66
2022/01/03 01:59:34;;;;;;;5.37;1.37;;;;;;;11.94;67.68;98749.31;5007286;28;103020;-65
2022/01/03 02:02:07;;;;;;;3.90;1.20;;;;;;;11.92;67.86;98766.28;5006554;27;103763;-66
2022/01/03 02:05:02;;;;;;;4.03;1.40;;;;;;;11.83;67.97;98772.25;5019043;27;103319;-66
2022/01/03 02:07:54;;;;;;;3.63;1.67;;;;;;;11.89;67.75;98764.72;5020453;28;103306;-66
2022/01/03 02:10:35;;;;;;;4.83;1.20;;;;;;;11.90;67.64;98758.44;5011780;28;102748;-66
2022/01/03 02:13:03;;;;;;;3.63;1.50;;;;;;;11.93;67.51;98767.97;5010319;28;103511;-66
2022/01/03 02:15:35;;;;;;;3.43;1.30;;;;;;;11.95;67.27;98758.09;5000116;28;105944;-66
2022/01/03 02:18:06;;;;;;;2.67;1.07;;;;;;;11.94;67.70;98759.91;5010872;27;105540;-66
2022/01/03 02:20:36;;;;;;;2.47;1.20;;;;;;;11.89;67.97;98759.41;5015110;28;102629;-66
2022/01/03 02:23:08;;;;;;;4.40;1.43;;;;;;;11.91;67.80;98765.41;5012145;28;102652;-66
2022/01/03 02:25:41;;;;;;;4.57;1.80;;;;;;;11.86;68.24;98761.44;5020104;28;103823;-67
2022/01/03 02:28:10;;;;;;;3.20;1.40;;;;;;;11.89;68.23;98756.75;5021935;27;103196;-67
2022/01/03 02:30:38;;;;;;;4.17;1.30;;;;;;;11.92;68.22;98755.69;5019037;28;102569;-66
2022/01/03 02:33:09;;;;;;;3.70;1.67;;;;;;;11.92;68.23;98761.81;5017627;28;103823;-66
2022/01/03 02:35:41;;;;;;;3.47;1.23;;;;;;;11.89;68.84;98762.06;5015357;28;103307;-66
2022/01/03 02:38:13;;;;;;;4.13;1.30;;;;;;;11.89;69.01;98770.00;5021176;27;103220;-66
2022/01/03 02:40:46;;;;;;;5.23;1.50;;;;;;;11.82;69.54;98758.19;5002100;28;102713;-67
2022/01/03 02:43:15;;;;;;;5.37;1.50;;;;;;;11.78;70.09;98764.69;5010857;28;103963;-66
2022/01/03 02:45:45;;;;;;;2.63;1.13;;;;;;;11.84;70.01;98768.66;5013108;27;105231;-67
2022/01/03 02:48:13;;;;;;;3.33;1.30;;;;;;;11.79;70.02;98770.81;5024102;27;103445;-66
2022/01/03 02:50:42;;;;;;;1.20;0.87;;;;;;;11.81;70.15;98777.69;5018796;28;102678;-66
2022/01/03 02:53:14;;;;;;;4.87;1.30;;;;;;;11.79;70.17;98766.34;5018017;27;103980;-66
2022/01/03 02:55:42;;;;;;;3.90;1.23;;;;;;;11.81;69.93;98780.34;5019305;28;103806;-66
2022/01/03 02:58:13;;;;;;;2.57;1.30;;;;;;;11.80;69.87;98778.63;5006094;27;105219;-66
2022/01/03 03:00:48;;;;;;;4.70;1.27;;;;;;;11.80;69.88;98783.94;5023402;27;102596;-66
2022/01/03 03:03:27;;;;;;;3.83;1.10;;;;;;;11.70;70.16;98777.66;5020532;27;103870;-66
2022/01/03 03:05:59;;;;;;;3.53;1.30;;;;;;;11.61;70.61;98786.25;5005123;28;105045;-67
2022/01/03 03:08:30;;;;;;;2.17;1.00;;;;;;;11.68;70.36;98784.81;5020300;28;103203;-66
2022/01/03 03:10:58;;;;;;;3.13;1.27;;;;;;;11.63;70.56;98793.09;5019212;27;103148;-67
2022/01/03 03:13:26;;;;;;;3.00;1.00;;;;;;;11.56;70.87;98791.88;5006685;28;103995;-66
2022/01/03 03:15:55;;;;;;;2.77;1.30;;;;;;;11.52;70.10;98789.56;5013302;28;105803;-66
2022/01/03 03:18:24;;;;;;;3.10;1.33;;;;;;;11.53;69.62;98800.06;5021786;27;103293;-66
2022/01/03 03:20:54;;;;;;;2.00;1.00;;;;;;;11.49;69.77;98790.66;5019720;28;102792;-67
2022/01/03 03:23:24;;;;;;;2.23;1.03;;;;;;;11.53;69.30;98786.84;5018329;27;102725;-67
2022/01/03 03:25:55;;;;;;;3.80;1.50;;;;;;;11.52;68.74;98792.22;5007865;27;105620;-67
2022/01/03 03:28:25;;;;;;;2.87;1.10;;;;;;;11.56;68.71;98796.34;5024343;27;104377;-66
2022/01/03 03:30:59;;;;;;;5.17;1.13;;;;;;;11.52;68.54;98800.16;5019863;28;102665;-67
2022/01/03 03:33:41;;;;;;;3.23;1.50;;;;;;;11.57;68.55;98792.72;5011322;28;103769;-67
2022/01/03 03:36:10;;;;;;;3.77;1.30;;;;;;;11.54;68.26;98790.28;5011455;28;104237;-67
2022/01/03 03:38:42;;;;;;;5.80;1.60;;;;;;;11.60;67.73;98798.63;5015662;27;105381;-67
2022/01/03 03:41:14;;;;;;;5.03;1.47;;;;;;;11.54;67.83;98787.66;5015059;28;102731;-67
2022/01/03 03:43:47;;;;;;;4.07;1.20;;;;;;;11.55;67.89;98797.28;5003453;27;102651;-67
2022/01/03 03:46:16;;;;;;;4.23;1.50;;;;;;;11.49;67.70;98795.09;5014626;28;103283;-67
2022/01/03 03:48:44;;;;;;;7.10;1.57;;;;;;;11.39;68.11;98788.81;5016592;28;105049;-66
2022/01/03 03:51:17;;;;;;;4.87;1.50;;;;;;;11.44;67.79;98786.66;5010863;28;102744;-67
2022/01/03 03:53:49;;;;;;;5.33;1.57;;;;;;;11.42;67.85;98783.28;5012792;28;104202;-67
2022/01/03 03:56:20;;;;;;;3.87;1.43;;;;;;;11.47;67.92;98781.16;5002471;28;104116;-67
2022/01/03 03:58:48;;;;;;;3.70;1.20;;;;;;;11.39;68.13;98781.72;5003236;28;103237;-67
2022/01/03 04:01:16;;;;;;;11.07;2.20;;;;;;;11.36;68.24;98778.47;5010545;28;102745;-67
2022/01/03 04:03:50;;;;;;;4.27;1.13;;;;;;;11.38;67.94;98781.81;5019732;27;103381;-67
2022/01/03 04:06:19;;;;;;;2.83;1.00;;;;;;;11.40;68.14;98793.13;5009776;28;105307;-67
2022/01/03 04:08:53;;;;;;;6.87;1.47;;;;;;;11.36;68.04;98795.19;5004171;28;103215;-67
2022/01/03 04:11:23;;;;;;;3.80;1.30;;;;;;;11.40;67.72;98793.13;5009384;28;102704;-67
2022/01/03 04:13:51;;;;;;;4.87;1.93;;;;;;;11.33;67.94;98794.56;5017329;28;102687;-67
2022/01/03 04:16:20;;;;;;;6.47;1.77;;;;;;;11.32;67.90;98798.13;5005665;28;103811;-67
2022/01/03 04:18:49;;;;;;;7.33;1.70;;;;;;;11.29;67.60;98798.38;5019548;27;103208;-66
2022/01/03 04:21:19;;;;;;;5.20;1.23;;;;;;;11.31;66.38;98797.28;5023985;27;102918;-66
2022/01/03 04:23:48;;;;;;;3.23;1.43;;;;;;;11.37;66.90;98785.41;5011057;28;104377;-66
2022/01/03 04:26:17;;;;;;;3.87;1.50;;;;;;;11.33;67.68;98791.91;5010424;27;103975;-67
2022/01/03 04:28:45;;;;;;;5.33;1.43;;;;;;;11.25;68.48;98794.28;5021336;27;103160;-67
2022/01/03 04:31:15;;;;;;;4.93;1.67;;;;;;;11.25;69.26;98797.78;5011264;28;102665;-68
2022/01/03 04:33:43;;;;;;;3.53;1.70;;;;;;;11.27;69.19;98802.94;5016402;28;103943;-68
2022/01/03 04:36:11;;;;;;;4.77;1.73;;;;;;;11.18;70.22;98800.94;5008494;28;103022;-68
2022/01/03 04:38:39;;;;;;;4.53;1.30;;;;;;;11.24;70.59;98806.66;5019892;28;103195;-67
2022/01/03 04:41:08;;;;;;;5.40;1.70;;;;;;;11.17;72.28;98817.78;5020703;27;102643;-67
2022/01/03 04:43:41;;;;;;;4.83;1.27;;;;;;;11.19;73.54;98829.09;5012578;28;102874;-67
2022/01/03 04:46:10;;;;;;;3.50;1.37;;;;;;;11.06;75.07;98818.53;5008970;28;105437;-67
2022/01/03 04:48:39;;;;;;;6.33;1.80;;;;;;;10.98;76.15;98816.47;5020010;27;103194;-67
2022/01/03 04:51:08;;;;;;;4.67;1.30;;;;;;;10.96;77.16;98817.53;5016607;28;103185;-66
2022/01/03 04:53:39;;;;;;;5.10;1.13;;;;;;;10.83;79.04;98828.16;5011561;28;103859;-66
2022/01/03 04:56:09;;;;;;;4.27;1.33;;;;;;;10.70;81.05;98837.03;5008805;28;103760;-66
2022/01/03 04:58:39;;;;;;;3.03;1.17;;;;;;;10.35;83.63;98858.00;5004486;28;103174;-66
2022/01/03 05:01:09;;;;;;;5.57;1.40;;;;;;;10.20;86.15;98851.97;5010572;27;102715;-66
2022/01/03 05:03:37;;;;;;;5.60;1.57;;;;;;;10.29;86.63;98843.44;5008213;28;102684;-66
2022/01/03 05:06:05;;;;;;;3.63;1.33;;;;;;;10.25;88.14;98835.81;5014042;28;104164;-66
2022/01/03 05:08:34;;;;;;;4.40;1.20;;;;;;;10.14;88.26;98839.19;5016407;28;103214;-66
2022/01/03 05:11:03;;;;;;;3.07;1.10;;;;;;;9.93;90.75;98829.22;5008879;28;102754;-66
2022/01/03 05:13:32;;;;;;;5.20;1.17;;;;;;;9.95;90.16;98840.50;5007228;28;104076;-65
2022/01/03 05:16:04;;;;;;;4.63;1.57;;;;;;;9.95;90.94;98845.78;5012516;28;105933;-66
2022/01/03 05:18:34;;;;;;;4.80;1.37;;;;;;;9.73;93.01;98870.13;5007847;28;103950;-67
2022/01/03 05:21:02;;;;;;;5.83;1.60;;;;;;;9.81;93.00;98862.53;5017766;28;103020;-67
2022/01/03 05:23:32;;;;;;;4.00;1.10;;;;;;;9.93;92.45;98855.59;4992233;28;103240;-67
2022/01/03 05:26:01;;;;;;;3.57;1.30;;;;;;;10.03;91.68;98841.69;5002449;28;103689;-67
2022/01/03 05:28:31;;;;;;;4.47;1.27;;;;;;;9.98;91.42;98853.50;5012460;27;103232;-67
2022/01/03 05:31:03;;;;;;;3.20;1.67;;;;;;;10.08;91.38;98844.00;5007319;28;102878;-67
2022/01/03 05:33:32;;;;;;;4.10;1.30;;;;;;;10.04;92.03;98847.81;5008365;28;103852;-67
2022/01/03 05:36:01;;;;;;;3.83;1.10;;;;;;;10.04;91.91;98847.81;5008269;27;104024;-71
2022/01/03 05:38:29;;;;;;;3.57;1.07;;;;;;;10.15;91.50;98840.03;5007388;27;103293;-72
2022/01/03 05:40:58;;;;;;;4.80;1.43;;;;;;;10.15;91.04;98837.41;5008349;28;102854;-71
2022/01/03 05:43:26;;;;;;;2.67;1.10;;;;;;;10.15;91.33;98834.75;5005359;28;103752;-72
2022/01/03 05:45:57;;;;;;;5.30;1.53;;;;;;;10.00;92.38;98836.59;5003080;28;104987;-72
2022/01/03 05:48:28;;;;;;;4.00;1.30;;;;;;;9.97;92.76;98838.59;5001261;28;105923;-72
2022/01/03 05:50:56;;;;;;;3.90;1.40;;;;;;;9.98;92.74;98850.84;5013265;28;102669;-72
2022/01/03 05:53:24;;;;;;;4.93;1.23;;;;;;;9.85;93.50;98854.31;5012675;28;103483;-71
2022/01/03 05:55:54;;;;;;;3.67;1.10;;;;;;;9.94;93.51;98862.59;4988079;27;103223;-72
2022/01/03 05:58:23;;;;;;;4.37;1.20;;;;;;;9.85;93.84;98864.03;5007004;27;103226;-72
2022/01/03 06:00:51;;;;;;;4.83;1.53;;;;;;;9.80;94.64;98866.13;5001024;28;102703;-72
2022/01/03 06:03:22;;;;;;;5.10;1.70;;;;;;;9.75;95.89;98855.88;5000732;27;102781;-72
2022/01/03 06:06:17;;;;;;;2.50;1.10;;;;;;;9.86;95.18;98863.06;5010907;28;103272;-72
2022/01/03 06:08:46;;;;;;;3.17;1.13;;;;;;;9.82;95.03;98865.06;5012915;27;103602;-72
2022/01/03 06:11:14;;;;;;;2.77;1.10;;;;;;;9.84;95.86;98855.28;5006177;28;102863;-66
2022/01/03 06:13:43;;;;;;;3.37;1.30;;;;;;;9.72;95.77;98864.00;5003847;27;102745;-66
2022/01/03 06:16:14;;;;;;;4.80;1.40;;;;;;;9.74;95.71;98867.38;5014511;28;105424;-72
2022/01/03 06:18:43;;;;;;;5.20;1.40;;;;;;;9.76;94.52;98867.28;5008223;28;103206;-71
2022/01/03 06:21:13;;;;;;;4.07;1.07;;;;;;;9.91;93.55;98867.09;5015035;28;102699;-67
2022/01/03 06:23:46;;;;;;;5.27;1.57;;;;;;;9.90;93.47;98872.50;5008305;28;103753;-67
2022/01/03 06:26:14;;;;;;;3.53;1.20;;;;;;;9.90;93.74;98861.94;5016409;28;105799;-66
2022/01/03 06:28:47;;;;;;;3.77;1.40;;;;;;;9.77;93.79;98851.34;5002578;27;105015;-66
2022/01/03 06:31:17;;;;;;;6.57;1.73;;;;;;;9.76;92.44;98852.31;5011951;28;102644;-66
2022/01/03 06:33:45;;;;;;;6.83;1.67;;;;;;;9.76;92.04;98854.94;5016069;28;103127;-66
2022/01/03 06:36:16;;;;;;;4.27;1.67;;;;;;;9.87;91.06;98855.06;5011436;28;106314;-66
2022/01/03 06:38:44;;;;;;;2.90;1.20;;;;;;;9.77;91.57;98835.50;5032665;27;103212;-67
2022/01/03 06:41:13;;;;;;;4.57;1.57;;;;;;;9.78;91.76;98837.22;5017274;28;102578;-67
2022/01/03 06:43:41;;;;;;;5.93;1.50;;;;;;;9.75;91.06;98850.59;5006352;28;103585;-67
2022/01/03 06:46:10;;;;;;;7.07;1.83;;;;;;;9.83;91.01;98845.66;5010168;28;105067;-67
2022/01/03 06:48:39;;;;;;;6.57;1.63;;;;;;;9.78;91.43;98846.91;5008603;27;104338;-67
2022/01/03 06:51:08;;;;;;;7.93;1.60;;;;;;;9.85;92.10;98843.75;5003540;28;102838;-67
2022/01/03 06:53:37;;;;;;;4.40;1.60;;;;;;;9.75;93.08;98837.41;5015115;28;104341;-66
2022/01/03 06:56:06;;;;;;;6.13;1.83;;;;;;;9.79;93.38;98832.78;5014996;28;104265;-67
2022/01/03 06:58:34;;;;;;;6.60;1.87;;;;;;;9.75;93.46;98826.00;5017145;28;105555;-66
2022/01/03 07:01:04;;;;;;;8.80;1.97;;;;;;;9.78;92.94;98831.94;5010309;28;102678;-66
2022/01/03 07:03:33;;;;;;;3.97;1.40;;;;;;;9.72;93.37;98829.69;5016531;28;102767;-67
2022/01/03 07:06:01;;;;;;;6.83;1.80;;;;;;;9.88;92.61;98827.72;5021635;27;103260;-72
2022/01/03 07:08:29;;;;;;;6.40;1.90;;;;;;;9.79;93.60;98836.28;5022387;27;103199;-72
2022/01/03 07:10:58;;;;;;;8.27;2.27;;;;;;;9.72;93.94;98837.59;5024303;27;102629;-67
2022/01/03 07:13:30;;;;;;;5.17;1.40;;;;;;;9.77;94.22;98840.78;5023330;27;102648;-67
2022/01/03 07:19:00;;;;;;;5.87;1.80;;;;;;;9.72;94.43;98847.31;5019037;28;103336;-67
2022/01/03 07:21:30;;;;;;;5.00;1.67;;;;;;;9.66;94.74;98859.13;5021608;27;102699;-67
2022/01/03 07:23:59;;;;;;;7.23;2.07;;;;;;;9.72;95.06;98847.31;5020023;28;102781;-67
2022/01/03 07:26:28;;;;;;;4.20;1.40;;;;;;;9.72;94.57;98842.88;5018130;27;103321;-67
2022/01/03 07:28:57;;;;;;;7.83;2.47;;;;;;;9.70;94.92;98842.16;5018026;27;103155;-67
2022/01/03 07:31:25;;;;;;;5.17;1.93;;;;;;;9.72;94.97;98842.03;5019382;28;103044;-64
2022/01/03 07:33:53;;;;;;;5.27;1.60;;;;;;;9.79;94.79;98838.91;5019792;28;102919;-66
2022/01/03 07:36:22;;;;;;;2.87;1.23;;;;;;;9.77;95.24;98839.94;5011215;28;103312;-66
2022/01/03 07:38:50;;;;;;;5.37;1.43;;;;;;;9.72;95.33;98842.88;5022454;27;103249;-66
2022/01/03 07:41:18;;;;;;;4.03;1.47;;;;;;;9.80;95.02;98824.75;5020978;28;102917;-66
2022/01/03 07:43:47;;;;;;;5.83;1.37;;;;;;;9.88;94.28;98838.28;5023239;27;104095;-66
2022/01/03 07:46:16;;;;;;;5.40;1.77;;;;;;;9.94;94.00;98823.81;5017437;28;103986;-67
2022/01/03 07:48:44;;;;;;;4.70;1.30;;;;;;;9.95;93.93;98829.94;5018840;28;104099;-66
2022/01/03 07:51:12;;;;;;;5.13;1.70;;;;;;;9.97;94.00;98838.59;5021040;27;102597;-66
2022/01/03 07:53:42;;;;;;;3.83;1.77;;;;;;;9.85;95.25;98843.75;5021172;27;103652;-66
2022/01/03 07:56:11;;;;;;;3.97;1.60;;;;;;;9.79;96.21;98833.63;5005937;27;104205;-66
2022/01/03 07:58:39;;;;;;;5.63;1.83;;;;;;;9.90;95.34;98831.13;5021261;28;103874;-66
2022/01/03 08:01:10;;;;;;;6.27;1.87;;;;;;;9.87;95.13;98833.97;5020876;27;102636;-66
2022/01/03 08:03:39;;;;;;;3.40;1.00;;;;;;;9.94;94.87;98820.34;5021354;27;104178;-66
2022/01/03 08:06:09;;;;;;;5.93;1.90;;;;;;;9.99;94.35;98813.81;5016986;28;103797;-67
2022/01/03 08:08:39;;;;;;;2.33;1.20;;;;;;;9.95;95.01;98816.75;5019420;28;103121;-67
2022/01/03 08:11:09;;;;;;;3.87;1.83;;;;;;;10.01;94.94;98811.06;5019845;28;102627;-66
2022/01/03 08:13:37;;;;;;;4.10;1.50;;;;;;;9.70;97.92;98815.78;5019906;28;103672;-67
2022/01/03 08:16:05;;;;;;;5.87;2.07;;;;;;;9.64;98.02;98820.59;5019685;27;103038;-66
2022/01/03 08:18:35;;;;;;;3.40;1.20;;;;;;;9.67;98.29;98821.25;5020639;28;103244;-66
2022/01/03 08:21:03;;;;;;;7.30;1.90;;;;;;;9.75;97.59;98813.66;5022118;27;102540;-66
2022/01/03 08:23:32;;;;;;;8.53;1.90;;;;;;;9.64;98.83;98825.88;5022788;27;102863;-66
2022/01/03 08:26:00;;;;;;;8.57;2.23;;;;;;;9.56;97.61;98833.47;5022335;27;104111;-66
2022/01/03 08:28:28;;;;;;;6.63;1.90;;;;;;;9.50;99.10;98837.34;5014289;28;103195;-67
2022/01/03 08:30:56;;;;;;;7.87;2.07;;;;;;;9.53;98.01;98836.28;5023136;27;102750;-66
2022/01/03 08:33:24;;;;;;;5.60;1.57;;;;;;;9.49;99.16;98835.63;5024669;27;103099;-66
2022/01/03 08:35:53;;;;;;;5.10;1.70;;;;;;;9.71;97.83;98833.28;5021674;27;103272;-66
2022/01/03 08:38:21;;;;;;;6.10;2.00;;;;;;;9.79;97.09;98838.91;5019521;27;103187;-66
2022/01/03 08:40:49;;;;;;;8.20;2.13;;;;;;;9.89;96.71;98829.41;5021957;27;102569;-66
2022/01/03 08:43:17;;;;;;;3.93;1.60;;;;;;;9.97;96.95;98835.94;5018803;28;104156;-67
2022/01/03 08:45:45;;;;;;;6.20;2.63;;;;;;;10.00;96.71;98831.31;5018053;28;104232;-66
2022/01/03 08:48:13;;;;;;;5.93;2.60;;;;;;;10.09;95.92;98824.56;5008558;27;104014;-66
2022/01/03 08:50:41;;;;;;;6.40;4.63;;;;;;;10.13;96.12;98831.38;5015787;28;102998;-66
2022/01/03 08:53:11;;;;;;;7.33;4.40;;;;;;;10.14;96.18;98827.78;5023488;27;103776;-66
2022/01/03 08:55:41;;;;;;;5.03;3.47;;;;;;;10.20;96.30;98836.13;5020365;27;103354;-66
2022/01/03 08:58:12;;;;;;;8.60;4.77;;;;;;;10.25;95.60;98833.16;5020710;27;103326;-66
2022/01/03 09:00:40;;;;;;;5.73;3.20;;;;;;;10.09;96.73;98830.69;5020508;27;102625;-66
2022/01/03 09:03:08;;;;;;;10.00;2.93;;;;;;;9.86;98.84;98834.91;5016870;28;102972;-67
2022/01/03 09:05:36;;;;;;;6.80;3.20;;;;;;;9.73;98.73;98834.03;5020223;27;103257;-66
2022/01/03 09:08:05;;;;;;;8.40;3.00;;;;;;;9.85;98.72;98832.38;5016706;27;103004;-66
2022/01/03 09:10:34;;;;;;;8.70;3.00;;;;;;;10.14;97.71;98827.78;5020095;28;102691;-66
2022/01/03 09:13:02;;;;;;;3.33;1.93;;;;;;;10.32;96.82;98815.97;5017389;28;102695;-66
2022/01/03 09:15:31;;;;;;;8.17;2.60;;;;;;;10.19;96.50;98825.69;5019832;28;103786;-66
2022/01/03 09:17:59;;;;;;;7.97;2.87;;;;;;;10.24;97.66;98824.41;5017673;27;103199;-67
2022/01/03 09:20:27;;;;;;;6.20;2.20;;;;;;;10.29;97.06;98830.22;5019127;27;103012;-67
2022/01/03 09:23:06;;;;;;;9.13;2.37;;;;;;;10.29;96.42;98826.72;5018010;28;102922;-67
2022/01/03 09:31:08;;;;;;;3.50;1.50;;;;;;;10.73;95.37;98811.25;5005920;27;102623;-68
2022/01/03 09:33:37;;;;;;;3.53;1.53;;;;;;;10.81;94.64;98806.25;4998952;28;104048;-68
2022/01/03 09:36:05;;;;;;;5.53;2.70;;;;;;;10.77;94.29;98807.44;5012273;27;103788;-68
2022/01/03 09:38:34;;;;;;;4.67;2.13;;;;;;;10.82;94.26;98796.53;5013536;27;103198;-68
2022/01/03 09:41:05;;;;;;;5.60;2.60;;;;;;;10.74;94.24;98793.59;5014864;27;102683;-68
2022/01/03 09:43:50;;;;;;;5.97;2.67;;;;;;;10.72;94.31;98804.25;5014105;27;102734;-68
2022/01/03 09:46:21;;;;;;;4.43;2.20;;;;;;;10.77;93.85;98796.03;5011694;28;103240;-68
2022/01/03 09:48:52;;;;;;;6.40;2.43;;;;;;;10.84;93.13;98797.25;5009790;27;103271;-68
2022/01/03 09:51:22;;;;;;;5.10;2.90;;;;;;;10.81;92.39;98790.41;5018400;27;103908;-68
2022/01/03 09:53:52;;;;;;;7.73;3.00;;;;;;;10.84;92.68;98803.41;5015930;27;102866;-68
2022/01/03 09:56:21;;;;;;;4.23;1.73;;;;;;;10.81;93.90;98794.84;5016623;27;103298;-68
2022/01/03 09:58:50;;;;;;;3.67;2.00;;;;;;;10.84;94.34;98786.69;5013632;28;103331;-68
2022/01/03 10:01:18;;;;;;;2.90;1.50;;;;;;;10.90;93.55;98792.38;5016727;27;102776;-68
2022/01/03 10:03:48;;;;;;;3.70;1.90;;;;;;;10.85;92.88;98793.69;5012076;27;103007;-68
2022/01/03 10:06:18;;;;;;;4.33;1.83;;;;;;;10.91;92.40;98788.81;5013506;28;104112;-68
2022/01/03 10:08:48;;;;;;;4.90;2.10;;;;;;;10.96;92.11;98791.09;5018409;27;103031;-62
2022/01/03 10:11:17;;;;;;;7.70;2.53;;;;;;;10.65;92.02;98791.59;5015179;27;102584;-68
2022/01/03 10:13:53;;;;;;;4.97;2.23;;;;;;;10.84;91.58;98792.81;5012796;28;103875;-68
2022/01/03 10:16:21;;;;;;;6.70;2.33;;;;;;;10.68;89.60;98792.25;5011578;28;103550;-68
2022/01/03 10:19:10;;;;;;;7.43;2.70;;;;;;;10.99;90.46;98791.72;5012907;28;103360;-68
2022/01/03 10:21:40;;;;;;;6.77;2.30;;;;;;;11.02;89.95;98793.31;5014019;27;102632;-68
2022/01/03 10:24:18;;;;;;;3.93;1.60;;;;;;;11.14;90.61;98788.94;5002814;27;102782;-68
2022/01/03 10:26:53;;;;;;;6.00;2.70;;;;;;;11.17;90.23;98783.41;5014057;27;102911;-68
2022/01/03 10:29:26;;;;;;;4.87;2.10;;;;;;;11.25;90.43;98779.25;5015018;27;103205;-68
2022/01/03 10:31:56;;;;;;;10.37;3.10;;;;;;;11.25;89.54;98786.34;5011287;28;103154;-68
2022/01/03 10:34:27;;;;;;;4.37;1.70;;;;;;;11.26;89.35;98780.06;5016857;28;103916;-68
2022/01/03 10:36:57;;;;;;;7.80;3.23;;;;;;;11.27;89.11;98774.69;5017597;27;104038;-68
2022/01/03 10:39:26;;;;;;;11.23;3.47;;;;;;;11.29;89.53;98772.75;5018538;28;103934;-68
2022/01/03 10:42:12;;;;;;;5.60;2.83;;;;;;;11.31;88.93;98777.97;5017609;27;104054;-68
2022/01/03 10:44:42;;;;;;;5.93;2.73;;;;;;;11.37;88.75;98774.84;5018314;28;103419;-69
2022/01/03 10:47:13;;;;;;;5.23;2.40;;;;;;;11.31;89.45;98772.66;5012706;27;103270;-68
2022/01/03 10:49:44;;;;;;;4.97;2.20;;;;;;;11.40;87.02;98766.66;5014797;27;103005;-68
2022/01/03 10:52:17;;;;;;;3.63;1.60;;;;;;;11.53;85.75;98759.53;5018598;27;102654;-68
2022/01/03 10:54:47;;;;;;;4.07;1.50;;;;;;;11.52;85.11;98763.97;5019865;27;103854;-68
2022/01/03 10:57:18;;;;;;;4.57;1.73;;;;;;;11.52;83.65;98763.13;5017767;27;103243;-68
2022/01/03 10:59:48;;;;;;;6.43;1.87;;;;;;;11.53;83.70;98764.81;5017138;27;103223;-68
2022/01/03 11:02:16;;;;;;;4.87;2.00;;;;;;;11.57;85.68;98753.88;5020364;27;102622;-68
2022/01/03 11:04:50;;;;;;;4.63;1.80;;;;;;;11.60;83.01;98756.28;5020730;27;102996;-68
2022/01/03 11:13:07;;;;;;;5.37;1.77;;;;;;;11.67;80.12;98740.81;5016695;28;103062;-68
2022/01/03 11:15:38;;;;;;;3.30;1.23;;;;;;;11.84;81.21;98737.75;5010219;27;102821;-68
2022/01/03 11:18:12;;;;;;;6.03;1.80;;;;;;;11.73;77.36;98737.72;5018270;27;103638;-68
2022/01/03 11:20:40;;;;;;;4.47;1.87;;;;;;;11.77;78.92;98736.50;5017496;27;103233;-68
2022/01/03 11:23:09;;;;;;;6.00;1.90;;;;;;;11.90;78.54;98728.50;5016476;27;102635;-68
2022/01/03 11:25:37;;;;;;;4.00;1.53;;;;;;;11.85;79.11;98735.91;5019402;28;103563;-68
2022/01/03 11:28:05;;;;;;;4.50;1.63;;;;;;;11.90;78.84;98734.59;5017943;27;103298;-68
2022/01/03 11:30:39;;;;;;;2.23;1.00;;;;;;;11.94;78.60;98721.97;5015764;27;103198;-68
2022/01/03 11:33:10;;;;;;;4.00;1.50;;;;;;;12.00;78.04;98722.34;5015936;28;102741;-68
2022/01/03 11:35:45;;;;;;;3.90;1.50;;;;;;;12.10;77.00;98710.06;5011337;28;102934;-68
2022/01/03 11:38:15;;;;;;;5.23;1.30;;;;;;;11.98;74.97;98708.41;5015134;28;103232;-68
2022/01/03 11:40:47;;;;;;;5.17;1.87;;;;;;;12.02;75.16;98704.53;5018581;27;103282;-67
2022/01/03 11:43:17;;;;;;;6.60;1.90;;;;;;;12.02;74.79;98707.19;5016904;27;103805;-68
2022/01/03 11:45:47;;;;;;;7.13;2.20;;;;;;;12.12;74.27;98705.53;5018803;27;103907;-68
2022/01/03 11:48:15;;;;;;;3.40;1.43;;;;;;;12.11;73.72;98701.19;5009015;27;104462;-68
2022/01/03 11:50:44;;;;;;;4.60;1.77;;;;;;;12.10;73.56;98696.84;5014651;28;103267;-68
2022/01/03 11:53:14;;;;;;;3.47;1.50;;;;;;;12.34;74.53;98687.94;5018315;28;102560;-68
2022/01/03 11:55:43;;;;;;;4.00;1.50;;;;;;;12.31;74.98;98691.66;5018266;27;102647;-68
2022/01/03 11:58:24;;;;;;;2.93;1.50;;;;;;;12.32;74.12;98684.56;5018043;27;103940;-68